createdAt,value
2018-02-13T00:02:23.114Z,12.57
2018-02-13T00:04:50.681Z,14.07
2018-02-13T00:07:18.226Z,10.23
2018-02-13T00:09:46.711Z,10.70
2018-02-13T00:12:14.245Z,12.10
2018-02-13T00:14:42.474Z,13.30
2018-02-13T00:17:10.040Z,11.57
2018-02-13T00:19:37.631Z,12.50
2018-02-13T00:22:05.242Z,11.97
2018-02-13T00:24:33.239Z,12.13
2018-02-13T00:27:00.961Z,13.10
2018-02-13T00:29:29.301Z,23.53
2018-02-13T00:31:56.837Z,12.90
2018-02-13T00:34:25.325Z,14.40
2018-02-13T00:36:52.906Z,12.30
2018-02-13T00:39:20.572Z,13.30
2018-02-13T00:41:48.134Z,13.77
2018-02-13T00:44:15.666Z,18.63
2018-02-13T00:46:45.801Z,13.63
2018-02-13T00:49:13.354Z,12.83
2018-02-13T00:51:41.915Z,14.23
2018-02-13T00:54:09.980Z,13.60
2018-02-13T00:56:39.082Z,14.87
2018-02-13T00:59:07.230Z,12.00
2018-02-13T01:01:35.036Z,14.13
2018-02-13T01:04:02.566Z,13.13
2018-02-13T01:06:30.219Z,17.73
2018-02-13T01:08:57.770Z,17.37
2018-02-13T01:11:26.066Z,12.00
2018-02-13T01:13:53.645Z,10.53
2018-02-13T01:16:21.203Z,14.43
2018-02-13T01:18:48.767Z,12.17
2018-02-13T01:21:17.014Z,13.70
2018-02-13T01:23:45.373Z,13.80
2018-02-13T01:26:13.751Z,11.13
2018-02-13T01:28:42.016Z,13.27
2018-02-13T01:31:09.921Z,11.80
2018-02-13T01:33:37.510Z,10.10
2018-02-13T01:36:05.331Z,10.87
2018-02-13T01:38:34.587Z,13.23
2018-02-13T01:41:02.125Z,12.43
2018-02-13T01:43:29.708Z,10.33
2018-02-13T01:45:57.451Z,12.67
2018-02-13T01:48:25.002Z,11.50
2018-02-13T01:50:52.574Z,8.73
2018-02-13T01:53:21.879Z,10.57
2018-02-13T01:55:49.463Z,10.70
2018-02-13T01:58:17.015Z,9.20
2018-02-13T02:00:44.652Z,10.20
2018-02-13T02:03:12.650Z,12.00
2018-02-13T02:05:40.158Z,8.83
2018-02-13T02:08:07.750Z,10.63
2018-02-13T02:10:35.312Z,9.07
2018-02-13T02:13:02.859Z,9.63
2018-02-13T02:15:30.420Z,9.90
2018-02-13T02:17:57.973Z,10.63
2018-02-13T02:20:25.591Z,13.57
2018-02-13T02:22:53.125Z,9.60
2018-02-13T02:25:20.686Z,10.80
2018-02-13T02:27:48.302Z,9.30
2018-02-13T02:30:15.836Z,10.93
2018-02-13T02:32:44.184Z,14.03
2018-02-13T02:35:11.777Z,9.57
2018-02-13T02:37:40.068Z,11.83
2018-02-13T02:40:07.628Z,10.10
2018-02-13T02:42:46.834Z,11.30
2018-02-13T02:45:14.520Z,12.73
2018-02-13T02:47:42.925Z,9.60
2018-02-13T02:50:10.474Z,9.50
2018-02-13T02:52:38.045Z,13.20
2018-02-13T02:55:06.056Z,9.97
2018-02-13T02:57:33.650Z,9.00
2018-02-13T03:00:01.200Z,9.00
2018-02-13T03:02:29.559Z,11.70
2018-02-13T03:04:57.158Z,11.17
2018-02-13T03:07:24.710Z,11.60
2018-02-13T03:09:53.032Z,12.07
2018-02-13T03:12:20.583Z,14.37
2018-02-13T03:14:48.095Z,11.77
2018-02-13T03:17:15.638Z,13.97
2018-02-13T03:19:43.202Z,14.10
2018-02-13T03:22:12.175Z,9.07
2018-02-13T03:24:39.917Z,9.30
2018-02-13T03:27:08.239Z,13.20
2018-02-13T03:29:35.775Z,12.90
2018-02-13T03:32:03.369Z,9.70
2018-02-13T03:34:30.945Z,11.53
2018-02-13T03:36:58.473Z,9.90
2018-02-13T03:39:26.068Z,11.07
2018-02-13T03:41:53.945Z,10.60
2018-02-13T03:44:21.478Z,12.93
2018-02-13T03:46:49.058Z,10.43
2018-02-13T03:49:16.596Z,14.70
2018-02-13T03:51:44.174Z,10.10
2018-02-13T03:54:11.750Z,8.57
2018-02-13T03:56:39.264Z,8.90
2018-02-13T03:59:06.964Z,11.33
2018-02-13T04:01:34.514Z,14.30
2018-02-13T04:04:02.090Z,13.33
2018-02-13T04:06:29.659Z,11.80
2018-02-13T04:08:58.109Z,11.80
2018-02-13T04:11:25.664Z,14.03
2018-02-13T04:13:53.957Z,9.93
2018-02-13T04:16:21.584Z,11.80
2018-02-13T04:18:49.228Z,14.93
2018-02-13T04:21:16.839Z,10.73
2018-02-13T04:23:44.376Z,12.27
2018-02-13T04:26:12.182Z,12.27
2018-02-13T04:28:39.741Z,15.33
2018-02-13T04:31:07.310Z,11.43
2018-02-13T04:33:34.829Z,10.33
2018-02-13T04:36:03.177Z,11.77
2018-02-13T04:38:30.712Z,10.93
2018-02-13T04:40:58.302Z,14.30
2018-02-13T04:43:25.845Z,12.60
2018-02-13T04:45:54.929Z,12.63
2018-02-13T04:48:22.488Z,16.23
2018-02-13T04:50:50.090Z,16.20
2018-02-13T04:53:18.390Z,14.80
2018-02-13T04:55:45.923Z,13.47
2018-02-13T04:58:13.471Z,15.37
2018-02-13T05:00:41.036Z,13.13
2018-02-13T05:03:09.271Z,13.37
2018-02-13T05:05:36.829Z,17.33
2018-02-13T05:08:04.368Z,13.77
2018-02-13T05:10:31.968Z,15.57
2018-02-13T05:12:59.538Z,16.47
2018-02-13T05:15:27.116Z,31.10
2018-02-13T05:17:54.801Z,24.87
2018-02-13T05:20:23.122Z,25.40
2018-02-13T05:22:50.691Z,20.77
2018-02-13T05:25:18.327Z,15.87
2018-02-13T05:27:45.922Z,14.97
2018-02-13T05:30:14.269Z,21.20
2018-02-13T05:32:42.314Z,15.27
2018-02-13T05:35:09.877Z,18.13
2018-02-13T05:37:37.408Z,13.07
2018-02-13T05:40:05.823Z,13.93
2018-02-13T05:42:34.381Z,13.70
2018-02-13T05:45:01.991Z,13.93
2018-02-13T05:47:30.351Z,14.70
2018-02-13T05:49:57.901Z,16.60
2018-02-13T05:52:25.427Z,14.93
2018-02-13T05:54:53.835Z,17.10
2018-02-13T05:57:21.420Z,14.97
2018-02-13T05:59:49.808Z,15.40
2018-02-13T06:02:17.348Z,15.80
2018-02-13T06:04:45.169Z,17.13
2018-02-13T06:07:12.762Z,15.27
2018-02-13T06:09:40.306Z,19.40
2018-02-13T06:12:07.873Z,16.03
2018-02-13T06:14:36.171Z,16.83
2018-02-13T06:17:03.791Z,17.00
2018-02-13T06:19:31.355Z,19.93
2018-02-13T06:21:58.926Z,14.80
2018-02-13T06:24:26.583Z,21.00
2018-02-13T06:26:55.003Z,13.23
2018-02-13T06:29:22.521Z,13.03
2018-02-13T06:31:50.113Z,14.67
2018-02-13T06:34:17.691Z,13.30
2018-02-13T06:36:45.267Z,26.93
2018-02-13T06:39:12.882Z,23.43
2018-02-13T06:41:41.021Z,17.97
2018-02-13T06:44:09.503Z,17.53
2018-02-13T06:46:37.123Z,13.87
2018-02-13T06:49:04.705Z,14.23
2018-02-13T06:51:32.266Z,19.00
2018-02-13T06:53:59.851Z,10.67
2018-02-13T06:56:27.453Z,13.67
2018-02-13T06:58:55.036Z,17.70
2018-02-13T07:01:22.600Z,17.13
2018-02-13T07:03:50.182Z,13.30
2018-02-13T07:06:17.749Z,15.17
2018-02-13T07:08:46.004Z,15.30
2018-02-13T07:11:13.524Z,14.67
2018-02-13T07:13:41.079Z,15.80
2018-02-13T07:16:08.672Z,13.70
2018-02-13T07:18:36.240Z,12.90
2018-02-13T07:21:03.850Z,17.97
2018-02-13T07:23:31.408Z,17.80
2018-02-13T07:25:58.984Z,18.00
2018-02-13T07:28:26.594Z,14.90
2018-02-13T07:30:54.154Z,15.53
2018-02-13T07:33:21.751Z,21.93
2018-02-13T07:35:49.307Z,13.47
2018-02-13T07:38:17.687Z,15.17
2018-02-13T07:40:46.054Z,16.00
2018-02-13T07:43:14.414Z,12.87
2018-02-13T07:45:41.993Z,13.00
2018-02-13T07:48:10.346Z,21.93
2018-02-13T07:50:37.972Z,13.33
2018-02-13T07:53:05.748Z,15.80
2018-02-13T07:55:33.310Z,17.40
2018-02-13T07:58:01.560Z,14.83
2018-02-13T08:00:29.141Z,12.07
2018-02-13T08:02:56.682Z,13.37
2018-02-13T08:05:24.254Z,16.00
2018-02-13T08:07:51.822Z,16.87
2018-02-13T08:10:20.406Z,13.40
2018-02-13T08:12:47.981Z,15.07
2018-02-13T08:15:15.482Z,16.60
2018-02-13T08:17:43.080Z,12.03
2018-02-13T08:20:10.672Z,19.27
2018-02-13T08:22:38.407Z,16.20
2018-02-13T08:25:06.435Z,16.10
2018-02-13T08:27:33.987Z,17.47
2018-02-13T08:30:02.337Z,19.93
2018-02-13T08:32:29.890Z,16.70
2018-02-13T08:34:57.543Z,14.83
2018-02-13T08:37:26.136Z,16.13
2018-02-13T08:39:53.696Z,16.97
2018-02-13T08:42:21.223Z,16.83
2018-02-13T08:44:48.833Z,13.17
2018-02-13T08:47:16.393Z,17.20
2018-02-13T08:49:44.057Z,16.97
2018-02-13T08:52:12.564Z,24.13
2018-02-13T08:54:40.921Z,17.13
2018-02-13T08:57:08.463Z,17.30
2018-02-13T08:59:36.811Z,19.00
2018-02-13T09:02:04.352Z,18.93
2018-02-13T09:04:32.669Z,20.67
2018-02-13T09:07:00.275Z,21.00
2018-02-13T09:09:28.599Z,16.87
2018-02-13T09:11:56.156Z,17.47
2018-02-13T09:14:23.752Z,15.13
2018-02-13T09:16:51.330Z,14.60
2018-02-13T09:19:19.055Z,17.23
2018-02-13T09:21:46.596Z,19.57
2018-02-13T09:24:14.174Z,14.00
2018-02-13T09:26:41.711Z,16.80
2018-02-13T09:29:10.156Z,23.00
2018-02-13T09:31:37.746Z,14.10
2018-02-13T09:34:05.903Z,17.63
2018-02-13T09:36:34.234Z,14.80
2018-02-13T09:39:01.875Z,20.50
2018-02-13T09:41:30.087Z,16.50
2018-02-13T09:43:57.645Z,17.40
2018-02-13T09:46:25.679Z,20.70
2018-02-13T09:48:53.289Z,22.20
2018-02-13T09:51:21.427Z,17.90
2018-02-13T09:53:49.014Z,18.60
2018-02-13T09:56:17.398Z,17.40
2018-02-13T09:58:44.957Z,20.40
2018-02-13T10:01:12.578Z,17.17
2018-02-13T10:03:40.389Z,23.73
2018-02-13T10:06:07.982Z,17.40
2018-02-13T10:08:35.546Z,19.10
2018-02-13T10:11:06.192Z,16.43
2018-02-13T10:13:33.798Z,25.60
2018-02-13T10:16:01.357Z,30.40
2018-02-13T10:18:28.946Z,27.37
2018-02-13T10:20:57.295Z,24.40
2018-02-13T10:23:24.911Z,21.23
2018-02-13T10:25:52.509Z,28.90
2018-02-13T10:28:20.046Z,22.90
2018-02-13T10:30:47.660Z,21.57
2018-02-13T10:33:15.245Z,29.97
2018-02-13T10:35:42.774Z,18.50
2018-02-13T10:38:11.170Z,22.03
2018-02-13T10:40:39.514Z,27.07
2018-02-13T10:43:07.472Z,25.33
2018-02-13T10:45:35.039Z,23.40
2018-02-13T10:48:04.065Z,22.17
2018-02-13T10:50:33.078Z,32.77
2018-02-13T10:53:00.652Z,22.83
2018-02-13T10:55:28.883Z,20.40
2018-02-13T10:57:56.403Z,21.00
2018-02-13T11:00:30.592Z,52.03
2018-02-13T11:02:59.426Z,74.00
2018-02-13T11:05:29.949Z,28.00
2018-02-13T11:07:58.129Z,27.73
2018-02-13T11:10:25.713Z,27.63
2018-02-13T11:12:55.258Z,19.93
2018-02-13T11:15:22.807Z,65.43
2018-02-13T11:17:50.395Z,131.80
2018-02-13T11:20:19.102Z,28.33
2018-02-13T11:22:47.572Z,19.27
2018-02-13T11:25:15.128Z,18.87
2018-02-13T11:27:42.754Z,26.20
2018-02-13T11:30:10.684Z,22.90
2018-02-13T11:32:38.245Z,25.87
2018-02-13T11:35:05.965Z,35.20
2018-02-13T11:37:33.541Z,37.90
2018-02-13T11:40:01.969Z,80.07
2018-02-13T11:42:29.771Z,47.60
2018-02-13T11:44:57.366Z,47.93
2018-02-13T11:47:24.910Z,20.03
2018-02-13T11:49:52.474Z,31.47
2018-02-13T11:52:20.877Z,27.10
2018-02-13T11:54:50.086Z,25.90
2018-02-13T11:57:18.861Z,39.17
2018-02-13T11:59:47.053Z,28.43
2018-02-13T12:02:14.858Z,28.97
2018-02-13T12:04:42.894Z,33.30
2018-02-13T12:07:11.038Z,26.77
2018-02-13T12:09:40.149Z,26.90
2018-02-13T12:12:07.682Z,25.50
2018-02-13T12:14:35.769Z,27.00
2018-02-13T12:17:05.203Z,23.87
2018-02-13T12:19:32.751Z,22.10
2018-02-13T12:22:01.086Z,23.80
2018-02-13T12:24:29.544Z,23.57
2018-02-13T12:26:57.176Z,15.83
2018-02-13T12:29:26.564Z,21.80
2018-02-13T12:31:54.884Z,21.97
2018-02-13T12:34:23.316Z,66.77
2018-02-13T12:36:50.935Z,25.17
2018-02-13T12:39:19.329Z,25.47
2018-02-13T12:41:46.952Z,23.87
2018-02-13T12:44:14.530Z,25.40
2018-02-13T12:46:42.155Z,26.43
2018-02-13T12:49:09.856Z,12.70
2018-02-13T12:51:37.423Z,16.10
2018-02-13T12:54:05.598Z,17.80
2018-02-13T12:56:34.034Z,20.93
2018-02-13T12:59:04.540Z,14.80
2018-02-13T13:01:33.205Z,15.60
2018-02-13T13:04:02.376Z,18.03
2018-02-13T13:06:29.938Z,19.13
2018-02-13T13:08:58.230Z,15.60
2018-02-13T13:11:25.811Z,24.50
2018-02-13T13:13:55.006Z,16.80
2018-02-13T13:16:22.585Z,12.60
2018-02-13T13:18:50.923Z,15.70
2018-02-13T13:21:19.093Z,24.50
2018-02-13T13:23:48.047Z,18.53
2018-02-13T13:26:16.247Z,13.37
2018-02-13T13:28:44.600Z,15.20
2018-02-13T13:31:12.179Z,16.53
2018-02-13T13:33:40.488Z,17.97
2018-02-13T13:36:08.036Z,16.90
2018-02-13T13:38:35.688Z,13.63
2018-02-13T13:41:03.363Z,28.33
2018-02-13T13:43:31.409Z,24.00
2018-02-13T13:45:59.137Z,14.23
2018-02-13T13:48:26.757Z,17.17
2018-02-13T13:50:54.513Z,25.17
2018-02-13T13:53:22.194Z,22.20
2018-02-13T13:55:50.189Z,34.13
2018-02-13T13:58:18.832Z,40.67
2018-02-13T14:13:41.567Z,25.50
2018-02-13T14:16:09.129Z,25.00
2018-02-13T14:18:37.627Z,21.30
2018-02-13T14:21:06.776Z,24.37
2018-02-13T14:23:34.384Z,22.87
2018-02-13T14:26:02.558Z,28.80
2018-02-13T14:28:30.645Z,24.63
2018-02-13T14:30:58.258Z,29.70
2018-02-13T14:33:27.578Z,30.67
2018-02-13T14:35:55.833Z,35.83
2018-02-13T14:38:25.056Z,40.57
2018-02-13T14:40:52.943Z,26.17
2018-02-13T14:43:23.010Z,27.63
2018-02-13T14:45:52.149Z,26.23
2018-02-13T14:48:20.602Z,31.43
2018-02-13T14:50:49.992Z,34.43
2018-02-13T14:53:18.802Z,29.60
2018-02-13T14:55:46.408Z,27.40
2018-02-13T14:58:14.044Z,36.00
2018-02-13T15:00:41.710Z,28.80
2018-02-13T15:03:09.270Z,30.47
2018-02-13T15:05:36.868Z,35.70
2018-02-13T15:08:04.492Z,34.40
2018-02-13T15:10:32.075Z,37.60
2018-02-13T15:12:59.690Z,36.70
2018-02-13T15:15:30.120Z,33.70
2018-02-13T15:18:01.404Z,36.60
2018-02-13T15:20:29.678Z,35.53
2018-02-13T15:22:57.272Z,45.10
2018-02-13T15:25:25.754Z,44.13
2018-02-13T15:27:53.876Z,43.00
2018-02-13T15:30:21.442Z,42.10
2018-02-13T15:32:49.071Z,44.23
2018-02-13T15:35:17.506Z,40.80
2018-02-13T15:37:45.288Z,43.50
2018-02-13T15:40:14.372Z,48.50
2018-02-13T15:42:42.453Z,48.67
2018-02-13T15:45:10.214Z,42.80
2018-02-13T15:47:41.849Z,39.40
2018-02-13T15:50:09.832Z,41.73
2018-02-13T15:52:37.787Z,37.50
2018-02-13T15:55:05.537Z,37.83
2018-02-13T15:57:33.096Z,37.63
2018-02-13T16:00:02.172Z,33.80
2018-02-13T16:02:30.618Z,35.97
2018-02-13T16:04:58.164Z,32.30
2018-02-13T16:07:26.490Z,32.50
2018-02-13T16:09:55.467Z,32.53
2018-02-13T16:12:23.117Z,33.77
2018-02-13T16:14:51.758Z,32.00
2018-02-13T16:17:20.391Z,30.93
2018-02-13T16:19:48.558Z,24.57
2018-02-13T16:22:16.112Z,28.67
2018-02-13T16:24:43.714Z,26.50
2018-02-13T16:27:12.058Z,28.50
2018-02-13T16:29:39.647Z,24.30
2018-02-13T16:32:08.012Z,28.87
2018-02-13T16:34:35.598Z,25.60
2018-02-13T16:37:04.059Z,23.80
2018-02-13T16:39:31.641Z,25.83
2018-02-13T16:41:59.994Z,29.43
2018-02-13T16:44:27.671Z,28.43
2018-02-13T16:46:55.288Z,27.53
2018-02-13T16:49:22.864Z,29.03
2018-02-13T16:51:50.395Z,25.87
2018-02-13T16:54:17.999Z,25.47
2018-02-13T16:56:46.414Z,28.63
2018-02-13T16:59:13.994Z,25.23
2018-02-13T17:01:43.080Z,30.13
2018-02-13T17:04:10.722Z,26.40
2018-02-13T17:06:39.089Z,28.63
2018-02-13T17:09:06.632Z,29.20
2018-02-13T17:11:34.765Z,27.20
2018-02-13T17:14:02.407Z,36.10
2018-02-13T17:16:30.734Z,27.03
2018-02-13T17:18:58.298Z,32.77
2018-02-13T17:21:26.248Z,29.67
2018-02-13T17:23:53.800Z,31.87
2018-02-13T17:26:21.395Z,26.73
2018-02-13T17:28:49.724Z,25.03
2018-02-13T17:31:17.279Z,28.17
2018-02-13T17:33:45.574Z,27.60
2018-02-13T17:36:13.260Z,38.80
2018-02-13T17:38:40.921Z,31.83
2018-02-13T17:41:08.468Z,29.50
2018-02-13T17:43:36.011Z,29.50
2018-02-13T17:46:03.614Z,31.90
2018-02-13T17:48:31.175Z,30.27
2018-02-13T17:50:58.706Z,27.70
2018-02-13T17:53:26.372Z,32.70
2018-02-13T17:55:53.955Z,29.50
2018-02-13T17:58:21.560Z,32.83
2018-02-13T18:00:49.100Z,34.67
2018-02-13T18:03:16.710Z,33.67
2018-02-13T18:05:44.274Z,33.80
2018-02-13T18:08:11.885Z,32.20
2018-02-13T18:10:40.842Z,27.83
2018-02-13T18:13:08.377Z,35.67
2018-02-13T18:15:35.944Z,37.17
2018-02-13T18:18:03.571Z,30.37
2018-02-13T18:20:31.875Z,31.53
2018-02-13T18:22:59.450Z,32.60
2018-02-13T18:25:27.054Z,28.60
2018-02-13T18:27:54.577Z,75.83
2018-02-13T18:30:22.098Z,38.90
2018-02-13T18:32:51.333Z,34.47
2018-02-13T18:35:18.878Z,40.10
2018-02-13T18:37:46.439Z,43.43
2018-02-13T18:40:14.009Z,35.03
2018-02-13T18:42:41.585Z,37.50
2018-02-13T18:45:09.639Z,29.00
2018-02-13T18:47:37.191Z,48.67
2018-02-13T18:50:05.563Z,46.63
2018-02-13T18:55:00.708Z,41.63
2018-02-13T18:57:28.609Z,45.87
2018-02-13T18:59:56.154Z,37.83
2018-02-13T19:02:23.757Z,79.67
2018-02-13T19:04:51.360Z,46.07
2018-02-13T19:07:19.757Z,35.37
2018-02-13T19:09:47.438Z,37.47
2018-02-13T19:12:15.792Z,37.00
2018-02-13T19:14:43.338Z,35.87
2018-02-13T19:19:38.496Z,37.97
2018-02-13T19:22:06.111Z,34.43
2018-02-13T19:24:33.683Z,36.37
2018-02-13T19:27:01.258Z,33.20
2018-02-13T19:29:29.512Z,30.07
2018-02-13T19:31:57.100Z,35.00
2018-02-13T19:34:24.782Z,38.27
2018-02-13T19:36:52.345Z,31.43
2018-02-13T19:39:20.012Z,31.43
2018-02-13T19:41:47.653Z,29.83
2018-02-13T19:44:15.759Z,33.50
2018-02-13T19:46:44.215Z,40.37
2018-02-13T19:49:11.761Z,35.80
2018-02-13T19:51:39.393Z,38.10
2018-02-13T19:54:07.029Z,32.07
2018-02-13T19:56:35.365Z,34.30
2018-02-13T19:59:02.948Z,35.13
2018-02-13T20:01:31.278Z,35.87
2018-02-13T20:03:59.198Z,38.87
2018-02-13T20:06:26.774Z,36.20
2018-02-13T20:08:54.417Z,40.17
2018-02-13T20:11:22.621Z,38.07
2018-02-13T20:13:51.010Z,34.20
2018-02-13T20:16:19.686Z,36.27
2018-02-13T20:18:47.403Z,37.10
2018-02-13T20:21:15.086Z,38.10
2018-02-13T20:23:42.691Z,39.93
2018-02-13T20:26:11.603Z,38.70
2018-02-13T20:28:39.167Z,38.20
2018-02-13T20:31:06.801Z,36.03
2018-02-13T20:33:35.229Z,38.13
2018-02-13T20:36:03.269Z,40.80
2018-02-13T20:38:31.075Z,42.17
2018-02-13T20:40:58.905Z,43.23
2018-02-13T20:43:26.504Z,36.37
2018-02-13T20:45:54.112Z,38.50
2018-02-13T20:48:21.949Z,38.90
2018-02-13T20:50:50.292Z,39.60
2018-02-13T20:53:17.917Z,38.40
2018-02-13T20:55:46.316Z,37.40
2018-02-13T20:58:14.135Z,40.37
2018-02-13T21:00:41.773Z,39.63
2018-02-13T21:03:10.017Z,38.10
2018-02-13T21:05:37.649Z,39.17
2018-02-13T21:08:05.984Z,32.73
2018-02-13T21:10:33.587Z,37.13
2018-02-13T21:13:02.060Z,40.23
2018-02-13T21:15:30.360Z,39.27
2018-02-13T21:17:58.276Z,38.57
2018-02-13T21:20:26.672Z,42.83
2018-02-13T21:22:54.245Z,37.47
2018-02-13T21:25:22.994Z,45.10
2018-02-13T21:27:50.536Z,42.80
2018-02-13T21:30:18.899Z,41.73
2018-02-13T21:32:46.510Z,45.53
2018-02-13T21:35:14.766Z,41.40
2018-02-13T21:37:42.405Z,41.10
2018-02-13T21:40:10.748Z,47.67
2018-02-13T21:42:38.306Z,45.33
2018-02-13T21:45:05.952Z,41.87
2018-02-13T21:47:33.565Z,54.87
2018-02-13T21:50:01.777Z,41.80
2018-02-13T21:52:29.356Z,46.37
2018-02-13T21:54:56.983Z,51.80
2018-02-13T21:57:24.653Z,45.73
2018-02-13T21:59:53.128Z,45.33
2018-02-13T22:02:21.151Z,45.03
2018-02-13T22:04:48.924Z,47.50
2018-02-13T22:07:16.515Z,52.87
2018-02-13T22:09:44.689Z,52.63
2018-02-13T22:12:12.309Z,50.90
2018-02-13T22:14:39.937Z,66.07
2018-02-13T22:17:07.555Z,62.80
2018-02-13T22:19:35.086Z,50.60
2018-02-13T22:22:03.421Z,56.27
2018-02-13T22:24:30.989Z,59.40
2018-02-13T22:26:58.555Z,52.50
2018-02-13T22:29:26.134Z,55.80
2018-02-13T22:31:53.665Z,50.87
2018-02-13T22:34:21.241Z,53.97
2018-02-13T22:36:49.109Z,54.37
2018-02-13T22:39:16.714Z,54.77
2018-02-13T22:41:44.644Z,50.87
2018-02-13T22:44:12.308Z,55.73
2018-02-13T22:46:39.962Z,53.27
2018-02-13T22:49:07.556Z,50.57
2018-02-13T22:51:35.290Z,61.83
2018-02-13T22:54:02.870Z,58.57
2018-02-13T22:56:30.465Z,56.67
2018-02-13T22:58:58.072Z,53.47
2018-02-13T23:01:25.684Z,58.30
2018-02-13T23:03:54.045Z,60.37
2018-02-13T23:06:21.700Z,61.17
2018-02-13T23:08:49.256Z,57.57
2018-02-13T23:11:17.531Z,54.83
2018-02-13T23:13:45.091Z,55.03
2018-02-13T23:16:13.262Z,56.80
2018-02-13T23:18:40.849Z,60.30
2018-02-13T23:21:09.480Z,69.13
2018-02-13T23:23:37.039Z,53.67
2018-02-13T23:26:04.858Z,57.07
2018-02-13T23:28:32.429Z,63.97
2018-02-13T23:31:00.782Z,58.37
2018-02-13T23:33:29.082Z,63.43
2018-02-13T23:35:57.390Z,61.70
2018-02-13T23:38:24.956Z,57.43
2018-02-13T23:40:52.518Z,58.40
2018-02-13T23:43:20.096Z,62.13
2018-02-13T23:45:47.714Z,59.07
2018-02-13T23:48:16.024Z,63.97
2018-02-13T23:50:43.572Z,59.17
2018-02-13T23:53:13.549Z,55.87
2018-02-13T23:55:42.717Z,59.37
2018-02-13T23:58:11.520Z,59.27
